createdAt,value
2023-04-09T00:01:12.530Z,100.00
2023-04-09T00:03:41.541Z,100.00
2023-04-09T00:06:12.419Z,100.00
2023-04-09T00:08:41.138Z,100.00
2023-04-09T00:11:09.827Z,100.00
2023-04-09T00:13:39.739Z,100.00
2023-04-09T00:16:10.313Z,100.00
2023-04-09T00:18:38.998Z,100.00
2023-04-09T00:21:08.742Z,100.00
2023-04-09T00:23:37.760Z,100.00
2023-04-09T00:26:06.359Z,100.00
2023-04-09T00:28:35.064Z,100.00
2023-04-09T00:31:04.068Z,100.00
2023-04-09T00:33:34.373Z,100.00
2023-04-09T00:36:03.288Z,100.00
2023-04-09T00:38:32.187Z,100.00
2023-04-09T00:41:01.087Z,100.00
2023-04-09T00:43:30.310Z,100.00
2023-04-09T00:46:00.044Z,100.00
2023-04-09T00:48:28.960Z,100.00
2023-04-09T00:50:59.223Z,100.00
2023-04-09T00:53:28.087Z,100.00
2023-04-09T00:55:57.016Z,100.00
2023-04-09T00:58:26.225Z,100.00
2023-04-09T01:00:54.887Z,100.00
2023-04-09T01:03:23.860Z,100.00
2023-04-09T01:06:05.728Z,100.00
2023-04-09T01:08:46.921Z,100.00
2023-04-09T01:11:25.376Z,100.00
2023-04-09T01:14:02.596Z,100.00
2023-04-09T01:16:35.475Z,100.00
2023-04-09T01:19:23.456Z,100.00
2023-04-09T01:21:54.556Z,100.00
2023-04-09T01:24:42.751Z,100.00
2023-04-09T01:27:16.240Z,100.00
2023-04-09T01:29:55.893Z,100.00
2023-04-09T01:32:26.355Z,100.00
2023-04-09T01:34:56.065Z,100.00
2023-04-09T01:37:26.085Z,100.00
2023-04-09T01:39:55.341Z,100.00
2023-04-09T01:42:24.224Z,100.00
2023-04-09T01:44:54.953Z,100.00
2023-04-09T01:47:24.231Z,100.00
2023-04-09T01:49:53.518Z,100.00
2023-04-09T01:52:22.603Z,100.00
2023-04-09T01:54:51.297Z,100.00
2023-04-09T01:57:20.078Z,100.00
2023-04-09T01:59:48.985Z,100.00
2023-04-09T02:02:26.376Z,100.00
2023-04-09T02:04:58.619Z,100.00
2023-04-09T02:07:36.494Z,100.00
2023-04-09T02:10:07.539Z,100.00
2023-04-09T02:12:38.530Z,100.00
2023-04-09T02:15:08.520Z,100.00
2023-04-09T02:17:38.656Z,100.00
2023-04-09T02:20:08.980Z,100.00
2023-04-09T02:22:37.641Z,100.00
2023-04-09T02:25:07.529Z,100.00
2023-04-09T02:27:36.224Z,100.00
2023-04-09T02:30:06.812Z,100.00
2023-04-09T02:32:35.832Z,100.00
2023-04-09T02:35:06.715Z,100.00
2023-04-09T02:37:35.340Z,100.00
2023-04-09T02:40:04.611Z,100.00
2023-04-09T02:42:33.424Z,100.00
2023-04-09T02:45:02.239Z,100.00
2023-04-09T02:47:34.464Z,100.00
2023-04-09T02:50:03.092Z,100.00
2023-04-09T02:52:36.732Z,100.00
2023-04-09T02:55:06.276Z,100.00
2023-04-09T02:57:34.836Z,100.00
2023-04-09T03:00:03.974Z,100.00
2023-04-09T03:02:33.008Z,100.00
2023-04-09T03:05:01.929Z,100.00
2023-04-09T03:07:30.576Z,100.00
2023-04-09T03:10:00.986Z,100.00
2023-04-09T03:12:29.693Z,100.00
2023-04-09T03:14:58.385Z,100.00
2023-04-09T03:17:27.342Z,100.00
2023-04-09T03:19:56.376Z,100.00
2023-04-09T03:22:25.149Z,100.00
2023-04-09T03:24:55.212Z,100.00
2023-04-09T03:27:25.423Z,100.00
2023-04-09T03:29:57.416Z,100.00
2023-04-09T03:32:32.905Z,100.00
2023-04-09T03:35:02.449Z,100.00
2023-04-09T03:37:31.938Z,100.00
2023-04-09T03:40:00.621Z,100.00
2023-04-09T03:42:34.994Z,100.00
2023-04-09T03:45:05.151Z,100.00
2023-04-09T03:47:39.354Z,100.00
2023-04-09T03:50:09.104Z,100.00
2023-04-09T03:52:51.523Z,100.00
2023-04-09T03:55:28.666Z,100.00
2023-04-09T03:57:59.182Z,100.00
2023-04-09T04:00:32.368Z,100.00
2023-04-09T04:03:36.860Z,100.00
2023-04-09T04:06:13.946Z,100.00
2023-04-09T04:08:50.979Z,100.00
2023-04-09T04:11:22.982Z,100.00
2023-04-09T04:13:56.799Z,100.00
2023-04-09T04:16:26.995Z,100.00
2023-04-09T04:18:56.670Z,100.00
2023-04-09T04:21:25.354Z,100.00
2023-04-09T04:24:01.011Z,100.00
2023-04-09T04:26:31.570Z,100.00
2023-04-09T04:29:01.676Z,100.00
2023-04-09T04:32:08.642Z,100.00
2023-04-09T04:34:39.768Z,100.00
2023-04-09T04:37:19.305Z,100.00
2023-04-09T04:39:48.832Z,100.00
2023-04-09T04:42:19.080Z,100.00
2023-04-09T04:44:50.059Z,100.00
2023-04-09T04:47:35.854Z,100.00
2023-04-09T04:50:07.893Z,100.00
2023-04-09T04:52:49.417Z,100.00
2023-04-09T04:55:18.198Z,100.00
2023-04-09T04:57:47.029Z,100.00
2023-04-09T05:00:17.335Z,100.00
2023-04-09T05:02:46.662Z,100.00
2023-04-09T05:05:22.776Z,100.00
2023-04-09T05:07:55.695Z,100.00
2023-04-09T05:10:25.306Z,100.00
2023-04-09T05:12:54.106Z,100.00
2023-04-09T05:15:34.270Z,100.00
2023-04-09T05:18:03.071Z,100.00
2023-04-09T05:20:31.980Z,100.00
2023-04-09T05:23:10.277Z,100.00
2023-04-09T05:25:43.166Z,100.00
2023-04-09T05:28:44.114Z,100.00
2023-04-09T05:31:19.585Z,100.00
2023-04-09T05:33:55.599Z,100.00
2023-04-09T05:36:34.095Z,100.00
2023-04-09T05:39:03.799Z,100.00
2023-04-09T05:41:33.615Z,100.00
2023-04-09T05:44:23.428Z,100.00
2023-04-09T05:46:57.203Z,100.00
2023-04-09T05:49:32.512Z,100.00
2023-04-09T05:52:02.649Z,100.00
2023-04-09T05:54:33.927Z,100.00
2023-04-09T05:57:03.164Z,100.00
2023-04-09T05:59:35.491Z,100.00
2023-04-09T06:02:06.491Z,100.00
2023-04-09T06:04:35.382Z,100.00
2023-04-09T06:07:04.102Z,100.00
2023-04-09T06:09:32.815Z,100.00
2023-04-09T06:12:04.058Z,100.00
2023-04-09T06:14:33.619Z,100.00
2023-04-09T06:17:02.693Z,100.00
2023-04-09T06:19:32.755Z,100.00
2023-04-09T06:22:01.460Z,100.00
2023-04-09T06:24:32.320Z,100.00
2023-04-09T06:27:01.511Z,100.00
2023-04-09T06:29:30.597Z,100.00
2023-04-09T06:31:59.398Z,95.75
2023-04-09T06:34:28.093Z,90.42
2023-04-09T06:36:58.419Z,86.06
2023-04-09T06:39:27.901Z,83.42
2023-04-09T06:41:56.510Z,78.91
2023-04-09T06:44:54.306Z,73.48
2023-04-09T06:47:22.956Z,69.41
2023-04-09T06:49:51.709Z,67.65
2023-04-09T06:52:21.825Z,66.53
2023-04-09T06:54:50.495Z,64.46
2023-04-09T06:57:19.083Z,62.55
2023-04-09T06:59:47.757Z,60.60
2023-04-09T07:02:16.888Z,58.75
2023-04-09T07:04:45.687Z,58.51
2023-04-09T07:07:14.450Z,56.49
2023-04-09T07:09:45.651Z,55.37
2023-04-09T07:12:14.234Z,56.38
2023-04-09T07:14:42.961Z,58.32
2023-04-09T07:17:11.535Z,60.24
2023-04-09T07:19:40.734Z,60.44
2023-04-09T07:22:09.406Z,62.50
2023-04-09T07:24:38.725Z,64.59
2023-04-09T07:27:09.794Z,67.01
2023-04-09T07:29:38.594Z,65.83
2023-04-09T07:32:07.439Z,64.78
2023-04-09T07:34:37.555Z,66.40
2023-04-09T07:37:06.626Z,66.83
2023-04-09T07:39:35.632Z,66.84
2023-04-09T07:42:08.154Z,66.31
2023-04-09T07:44:37.484Z,65.64
2023-04-09T07:47:08.971Z,67.21
2023-04-09T07:49:38.312Z,67.80
2023-04-09T07:52:07.549Z,64.29
2023-04-09T07:54:36.963Z,63.42
2023-04-09T07:57:06.261Z,61.54
2023-04-09T07:59:37.772Z,61.47
2023-04-09T08:02:28.023Z,59.23
2023-04-09T08:04:57.235Z,59.81
2023-04-09T08:07:26.254Z,59.36
2023-04-09T08:09:55.102Z,60.54
2023-04-09T08:12:29.341Z,61.60
2023-04-09T08:14:59.545Z,60.29
2023-04-09T08:17:29.230Z,57.82
2023-04-09T08:19:58.413Z,58.00
2023-04-09T08:22:27.239Z,57.63
2023-04-09T08:24:58.117Z,56.81
2023-04-09T08:27:27.351Z,60.41
2023-04-09T08:29:56.958Z,54.54
2023-04-09T08:32:28.036Z,53.01
2023-04-09T08:34:57.055Z,52.10
2023-04-09T08:37:26.871Z,50.27
2023-04-09T08:39:55.766Z,48.98
2023-04-09T08:42:26.410Z,49.56
2023-04-09T08:44:55.349Z,47.52
2023-04-09T08:47:25.034Z,50.44
2023-04-09T08:49:55.274Z,49.29
2023-04-09T08:52:33.527Z,50.10
2023-04-09T08:55:02.293Z,49.66
2023-04-09T08:57:31.230Z,47.68
2023-04-09T09:00:02.896Z,47.14
2023-04-09T09:02:32.196Z,47.60
2023-04-09T09:05:02.423Z,47.70
2023-04-09T09:07:32.295Z,48.04
2023-04-09T09:10:04.981Z,47.66
2023-04-09T09:12:37.218Z,48.28
2023-04-09T09:15:31.362Z,47.11
2023-04-09T09:18:02.691Z,47.73
2023-04-09T09:20:33.253Z,46.96
2023-04-09T09:23:02.396Z,47.89
2023-04-09T09:25:30.922Z,48.92
2023-04-09T09:28:09.180Z,49.30
2023-04-09T09:30:39.766Z,48.62
2023-04-09T09:33:09.987Z,48.43
2023-04-09T09:35:51.061Z,47.99
2023-04-09T09:38:19.830Z,48.33
2023-04-09T09:40:48.639Z,48.56
2023-04-09T09:43:17.245Z,48.52
2023-04-09T09:45:48.217Z,50.19
2023-04-09T09:48:17.335Z,48.50
2023-04-09T09:50:48.094Z,48.11
2023-04-09T09:53:22.593Z,46.35
2023-04-09T09:55:54.367Z,42.76
2023-04-09T09:58:28.368Z,42.69
2023-04-09T10:00:57.866Z,40.75
2023-04-09T10:03:28.476Z,39.20
2023-04-09T10:05:58.589Z,36.38
2023-04-09T10:08:30.447Z,35.87
2023-04-09T10:10:59.122Z,33.69
2023-04-09T10:13:32.343Z,33.56
2023-04-09T10:16:01.772Z,35.01
2023-04-09T10:18:33.506Z,35.94
2023-04-09T10:21:10.246Z,38.22
2023-04-09T10:23:42.169Z,35.67
2023-04-09T10:26:11.188Z,34.32
2023-04-09T10:28:44.116Z,31.71
2023-04-09T10:31:13.065Z,29.76
2023-04-09T10:33:44.555Z,28.95
2023-04-09T10:36:14.143Z,29.62
2023-04-09T10:38:48.227Z,30.97
2023-04-09T10:41:28.819Z,31.07
2023-04-09T10:43:58.718Z,31.97
2023-04-09T10:46:28.895Z,31.40
2023-04-09T10:49:13.979Z,33.65
2023-04-09T10:51:45.040Z,33.26
2023-04-09T10:54:49.448Z,34.58
2023-04-09T10:57:20.752Z,35.09
2023-04-09T10:59:51.443Z,37.09
2023-04-09T11:02:55.868Z,36.98
2023-04-09T11:05:31.859Z,36.99
2023-04-09T11:08:06.258Z,34.47
2023-04-09T11:10:37.071Z,32.29
2023-04-09T11:13:06.300Z,33.63
2023-04-09T11:15:36.773Z,34.00
2023-04-09T11:18:06.962Z,33.99
2023-04-09T11:20:35.664Z,34.50
2023-04-09T11:23:04.178Z,33.67
2023-04-09T11:25:34.934Z,31.03
2023-04-09T11:28:06.072Z,29.14
2023-04-09T11:30:35.614Z,29.58
2023-04-09T11:33:04.517Z,29.25
2023-04-09T11:35:36.349Z,29.20
2023-04-09T11:38:08.065Z,28.05
2023-04-09T11:40:37.050Z,27.42
2023-04-09T11:43:09.409Z,26.69
2023-04-09T11:45:39.364Z,27.51
2023-04-09T11:48:08.123Z,27.90
2023-04-09T11:50:37.759Z,29.04
2023-04-09T11:53:17.808Z,30.93
2023-04-09T11:55:48.888Z,30.39
2023-04-09T11:58:19.009Z,29.86
2023-04-09T12:00:47.448Z,28.34
2023-04-09T12:03:16.817Z,27.90
2023-04-09T12:05:50.873Z,28.43
2023-04-09T12:08:24.748Z,28.51
2023-04-09T12:10:54.192Z,29.79
2023-04-09T12:13:33.794Z,31.91
2023-04-09T12:16:02.569Z,30.75
2023-04-09T12:18:31.082Z,29.47
2023-04-09T12:21:01.285Z,27.12
2023-04-09T12:23:31.295Z,27.12
2023-04-09T12:26:01.243Z,25.12
2023-04-09T12:28:31.836Z,25.89
2023-04-09T12:31:00.474Z,25.91
2023-04-09T12:33:29.006Z,26.40
2023-04-09T12:35:58.309Z,27.27
2023-04-09T12:38:26.946Z,27.54
2023-04-09T12:40:55.350Z,28.15
2023-04-09T12:43:23.761Z,27.66
2023-04-09T12:45:53.729Z,26.79
2023-04-09T12:48:22.223Z,27.85
2023-04-09T12:50:50.970Z,28.20
2023-04-09T12:53:19.454Z,28.51
2023-04-09T12:55:47.887Z,27.55
2023-04-09T12:58:16.287Z,27.63
2023-04-09T13:00:44.888Z,28.92
2023-04-09T13:03:16.516Z,30.42
2023-04-09T13:05:45.569Z,30.20
2023-04-09T13:08:14.055Z,30.74
2023-04-09T13:10:42.895Z,30.36
2023-04-09T13:13:12.885Z,30.08
2023-04-09T13:15:43.431Z,30.12
2023-04-09T13:18:12.088Z,29.08
2023-04-09T13:20:41.970Z,29.84
2023-04-09T13:23:10.545Z,29.30
2023-04-09T13:25:38.978Z,30.09
2023-04-09T13:28:07.383Z,30.04
2023-04-09T13:30:35.899Z,28.48
2023-04-09T13:33:04.643Z,28.43
2023-04-09T13:35:33.161Z,29.12
2023-04-09T13:38:02.961Z,30.57
2023-04-09T13:40:31.836Z,31.98
2023-04-09T13:43:00.570Z,32.99
2023-04-09T13:45:29.101Z,34.82
2023-04-09T13:47:57.786Z,34.60
2023-04-09T13:50:26.426Z,34.79
2023-04-09T13:52:55.074Z,34.91
2023-04-09T13:55:24.878Z,34.24
2023-04-09T13:57:53.243Z,33.92
2023-04-09T14:00:21.994Z,33.31
2023-04-09T14:02:50.550Z,33.83
2023-04-09T14:05:19.362Z,35.00
2023-04-09T14:07:47.877Z,35.98
2023-04-09T14:10:16.930Z,35.75
2023-04-09T14:12:46.756Z,35.80
2023-04-09T14:15:15.432Z,34.63
2023-04-09T14:17:44.367Z,34.83
2023-04-09T14:20:13.123Z,35.02
2023-04-09T14:22:42.938Z,34.64
2023-04-09T14:25:11.368Z,35.15
2023-04-09T14:27:39.825Z,34.22
2023-04-09T14:30:11.162Z,34.06
2023-04-09T14:32:39.689Z,34.30
2023-04-09T14:35:08.603Z,34.00
2023-04-09T14:37:37.629Z,34.29
2023-04-09T14:40:07.333Z,33.93
2023-04-09T14:42:36.485Z,33.92
2023-04-09T14:45:05.689Z,34.87
2023-04-09T14:47:35.557Z,34.18
2023-04-09T14:50:08.466Z,34.38
2023-04-09T14:52:37.390Z,35.21
2023-04-09T14:55:12.015Z,34.78
2023-04-09T14:57:40.979Z,35.20
2023-04-09T15:00:10.796Z,34.94
2023-04-09T15:02:41.266Z,35.80
2023-04-09T15:05:10.953Z,34.99
2023-04-09T15:07:39.527Z,35.85
2023-04-09T15:10:09.418Z,35.84
2023-04-09T15:12:37.892Z,36.10
2023-04-09T15:15:08.125Z,36.31
2023-04-09T15:17:37.073Z,36.25
2023-04-09T15:20:08.322Z,36.62
2023-04-09T15:22:37.184Z,36.54
2023-04-09T15:25:06.620Z,35.91
2023-04-09T15:27:35.432Z,36.99
2023-04-09T15:30:04.145Z,36.96
2023-04-09T15:32:32.627Z,37.44
2023-04-09T15:35:01.364Z,37.30
2023-04-09T15:37:31.240Z,37.83
2023-04-09T15:40:00.007Z,38.81
2023-04-09T15:42:28.498Z,39.28
2023-04-09T15:44:57.016Z,39.65
2023-04-09T15:47:25.598Z,40.51
2023-04-09T15:49:54.949Z,41.76
2023-04-09T15:52:23.544Z,40.71
2023-04-09T15:54:53.661Z,40.79
2023-04-09T15:57:22.268Z,41.31
2023-04-09T15:59:51.868Z,41.37
2023-04-09T16:02:20.480Z,42.10
2023-04-09T16:04:48.932Z,42.34
2023-04-09T16:07:17.593Z,42.34
2023-04-09T16:09:46.536Z,42.08
2023-04-09T16:12:16.704Z,42.61
2023-04-09T16:14:45.153Z,42.39
2023-04-09T16:17:13.674Z,41.91
2023-04-09T16:19:43.304Z,42.15
2023-04-09T16:22:11.901Z,41.98
2023-04-09T16:24:40.424Z,42.39
2023-04-09T16:27:08.970Z,42.82
2023-04-09T16:29:38.789Z,42.10
2023-04-09T16:32:07.370Z,42.56
2023-04-09T16:34:35.991Z,42.42
2023-04-09T16:37:04.726Z,42.57
2023-04-09T16:39:33.256Z,42.60
2023-04-09T16:42:02.128Z,43.45
2023-04-09T16:44:30.867Z,43.17
2023-04-09T16:47:01.088Z,43.35
2023-04-09T16:49:29.655Z,43.83
2023-04-09T16:51:58.432Z,44.18
2023-04-09T16:54:27.346Z,43.88
2023-04-09T16:56:57.140Z,44.00
2023-04-09T16:59:25.688Z,43.53
2023-04-09T17:01:54.324Z,44.08
2023-04-09T17:04:24.381Z,43.96
2023-04-09T17:06:53.045Z,44.38
2023-04-09T17:09:21.747Z,45.38
2023-04-09T17:11:52.896Z,44.82
2023-04-09T17:14:21.479Z,44.50
2023-04-09T17:16:49.968Z,44.38
2023-04-09T17:19:18.618Z,45.08
2023-04-09T17:21:48.394Z,45.36
2023-04-09T17:24:19.036Z,45.37
2023-04-09T17:26:47.526Z,45.94
2023-04-09T17:29:16.562Z,46.64
2023-04-09T17:31:52.243Z,46.90
2023-04-09T17:34:20.697Z,46.87
2023-04-09T17:36:58.644Z,47.82
2023-04-09T17:39:29.881Z,47.64
2023-04-09T17:42:00.544Z,48.05
2023-04-09T17:44:31.292Z,48.40
2023-04-09T17:47:00.323Z,48.87
2023-04-09T17:49:31.220Z,49.03
2023-04-09T17:52:01.217Z,49.11
2023-04-09T17:54:34.593Z,48.79
2023-04-09T17:57:05.014Z,49.65
2023-04-09T17:59:34.347Z,51.45
2023-04-09T18:02:03.547Z,52.37
2023-04-09T18:04:32.636Z,53.45
2023-04-09T18:07:03.854Z,52.85
2023-04-09T18:09:32.860Z,51.98
2023-04-09T18:12:02.675Z,52.14
2023-04-09T18:14:32.422Z,51.59
2023-04-09T18:17:01.233Z,50.60
2023-04-09T18:19:29.720Z,49.84
2023-04-09T18:21:58.342Z,49.61
2023-04-09T18:24:32.678Z,49.26
2023-04-09T18:27:02.511Z,49.66
2023-04-09T18:29:32.257Z,49.69
2023-04-09T18:32:01.008Z,49.74
2023-04-09T18:34:29.615Z,50.04
2023-04-09T18:37:00.846Z,49.95
2023-04-09T18:39:32.721Z,50.37
2023-04-09T18:42:03.095Z,50.45
2023-04-09T18:44:37.373Z,50.88
2023-04-09T18:47:11.997Z,51.07
2023-04-09T18:50:52.671Z,51.90
2023-04-09T19:11:48.793Z,56.70
2023-04-09T19:14:17.286Z,56.26
2023-04-09T19:57:22.871Z,64.18
2023-04-09T20:01:03.693Z,63.42
2023-04-09T20:11:53.374Z,62.69
2023-04-09T20:15:47.158Z,61.56
2023-04-09T20:20:23.640Z,59.91
2023-04-09T20:23:45.506Z,59.81
2023-04-09T20:27:24.523Z,59.47
2023-04-09T20:30:21.624Z,58.79
2023-04-09T20:32:50.279Z,59.07
2023-04-09T20:35:19.072Z,59.81
2023-04-09T20:37:49.093Z,59.64
2023-04-09T20:40:18.909Z,59.68
2023-04-09T20:42:47.301Z,58.79
2023-04-09T20:45:16.084Z,59.37
2023-04-09T20:47:46.910Z,59.79
2023-04-09T20:50:15.700Z,59.65
2023-04-09T20:52:44.848Z,59.88
2023-04-09T20:55:13.444Z,60.01
2023-04-09T20:57:43.834Z,60.34
2023-04-09T21:00:13.585Z,60.11
2023-04-09T21:02:42.223Z,60.22
2023-04-09T21:05:21.808Z,59.83
2023-04-09T21:07:52.335Z,60.20
2023-04-09T21:10:21.226Z,59.79
2023-04-09T21:12:53.289Z,60.39
2023-04-09T21:15:21.770Z,60.88
2023-04-09T21:17:50.221Z,60.67
2023-04-09T21:20:19.335Z,60.39
2023-04-09T21:22:47.805Z,60.56
2023-04-09T21:25:16.202Z,61.05
2023-04-09T21:27:44.649Z,61.21
2023-04-09T21:30:14.584Z,61.13
2023-04-09T21:32:43.088Z,61.23
2023-04-09T21:35:11.717Z,61.32
2023-04-09T21:39:07.015Z,61.02
2023-04-09T21:41:35.847Z,61.16
2023-04-09T21:44:08.180Z,60.56
2023-04-09T21:46:37.367Z,60.56
2023-04-09T21:49:06.006Z,60.03
2023-04-09T21:51:34.541Z,59.97
2023-04-09T21:54:05.018Z,59.52
2023-04-09T21:56:36.364Z,59.28
2023-04-09T21:59:05.705Z,59.04
2023-04-09T22:01:35.113Z,59.43
2023-04-09T22:04:04.330Z,58.40
2023-04-09T22:06:33.042Z,57.83
2023-04-09T22:09:01.854Z,57.35
2023-04-09T22:11:30.753Z,57.57
2023-04-09T22:14:00.710Z,57.57
2023-04-09T22:16:29.280Z,57.83
2023-04-09T22:18:58.082Z,57.48
2023-04-09T22:21:27.575Z,57.23
2023-04-09T22:23:56.090Z,57.57
2023-04-09T22:26:24.866Z,57.62
2023-04-09T22:28:53.499Z,57.11
2023-04-09T22:31:23.766Z,57.46
2023-04-09T22:33:52.280Z,57.62
2023-04-09T22:36:20.804Z,57.43
2023-04-09T22:38:49.388Z,56.98
2023-04-09T22:41:17.868Z,57.02
2023-04-09T22:43:46.620Z,56.97
2023-04-09T22:46:15.097Z,57.23
2023-04-09T22:48:46.472Z,57.43
2023-04-09T22:51:15.476Z,56.82
2023-04-09T22:53:44.086Z,57.22
2023-04-09T22:56:12.640Z,57.39
2023-04-09T22:58:41.200Z,57.28
2023-04-09T23:01:09.765Z,57.13
2023-04-09T23:03:38.240Z,57.23
2023-04-09T23:06:08.381Z,57.18
2023-04-09T23:08:38.780Z,56.36
2023-04-09T23:11:08.781Z,56.75
2023-04-09T23:13:37.861Z,57.18
2023-04-09T23:16:07.275Z,57.21
2023-04-09T23:18:36.777Z,56.84
2023-04-09T23:21:06.904Z,57.58
2023-04-09T23:23:37.804Z,56.98
2023-04-09T23:26:07.030Z,56.54
2023-04-09T23:28:35.497Z,56.41
2023-04-09T23:31:03.984Z,56.47
2023-04-09T23:33:32.477Z,55.89
2023-04-09T23:36:00.953Z,55.68
2023-04-09T23:38:29.401Z,55.40
2023-04-09T23:40:59.236Z,56.13
2023-04-09T23:43:27.708Z,55.34
2023-04-09T23:45:58.888Z,55.10
2023-04-09T23:48:27.368Z,55.31
2023-04-09T23:50:55.864Z,55.38
2023-04-09T23:53:24.278Z,55.57
2023-04-09T23:55:52.778Z,55.89
2023-04-09T23:58:23.093Z,55.10
